createdAt,value
2018-05-29T00:00:14.041Z,97959.98
2018-05-29T00:02:42.284Z,97964.26
2018-05-29T00:05:11.324Z,97958.45
2018-05-29T00:07:39.582Z,97956.52
2018-05-29T00:10:07.845Z,97956.41
2018-05-29T00:12:36.182Z,97957.00
2018-05-29T00:15:04.520Z,97951.47
2018-05-29T00:17:32.831Z,97949.30
2018-05-29T00:20:01.147Z,97942.27
2018-05-29T00:22:29.404Z,97944.17
2018-05-29T00:24:57.677Z,97946.31
2018-05-29T00:27:25.961Z,97946.08
2018-05-29T00:29:54.203Z,97948.72
2018-05-29T00:32:23.216Z,97950.17
2018-05-29T00:34:51.487Z,97947.23
2018-05-29T00:37:19.750Z,97944.28
2018-05-29T00:39:47.988Z,97949.75
2018-05-29T00:42:16.265Z,97945.78
2018-05-29T00:44:44.520Z,97946.88
2018-05-29T00:47:13.541Z,97938.40
2018-05-29T00:49:41.808Z,97944.03
2018-05-29T00:52:10.164Z,97941.14
2018-05-29T00:54:38.456Z,97942.08
2018-05-29T00:57:06.807Z,97940.64
2018-05-29T00:59:35.970Z,97938.72
2018-05-29T01:02:04.300Z,97932.45
2018-05-29T01:04:32.639Z,97940.22
2018-05-29T01:07:00.943Z,97937.98
2018-05-29T01:09:30.031Z,97933.93
2018-05-29T01:11:59.065Z,97938.49
2018-05-29T01:14:27.331Z,97935.33
2018-05-29T01:16:56.340Z,97930.45
2018-05-29T01:19:24.624Z,97933.33
2018-05-29T01:21:52.864Z,97928.82
2018-05-29T01:24:21.894Z,97930.27
2018-05-29T01:26:50.150Z,97933.09
2018-05-29T01:29:18.417Z,97936.77
2018-05-29T01:31:47.430Z,97934.63
2018-05-29T01:34:15.699Z,97939.94
2018-05-29T01:36:47.550Z,97940.68
2018-05-29T01:39:15.824Z,97936.86
2018-05-29T01:41:44.073Z,97930.03
2018-05-29T01:44:12.324Z,97931.12
2018-05-29T01:46:40.593Z,97927.77
2018-05-29T01:49:08.847Z,97932.03
2018-05-29T01:51:37.109Z,97927.89
2018-05-29T01:54:05.379Z,97936.23
2018-05-29T01:56:34.389Z,97926.52
2018-05-29T01:59:02.645Z,97932.84
2018-05-29T02:01:31.673Z,97929.79
2018-05-29T02:03:59.924Z,97932.14
2018-05-29T02:06:28.170Z,97924.94
2018-05-29T02:08:56.432Z,97924.43
2018-05-29T02:11:24.689Z,97926.65
2018-05-29T02:13:52.938Z,97923.00
2018-05-29T02:16:21.210Z,97932.67
2018-05-29T02:18:49.476Z,97935.59
2018-05-29T02:21:17.728Z,97921.52
2018-05-29T02:23:45.992Z,97921.13
2018-05-29T02:26:14.249Z,97916.73
2018-05-29T02:28:42.505Z,97912.92
2018-05-29T02:31:10.791Z,97910.55
2018-05-29T02:33:39.036Z,97920.01
2018-05-29T02:36:07.301Z,97919.39
2018-05-29T02:38:36.328Z,97912.96
2018-05-29T02:41:04.584Z,97914.11
2018-05-29T02:43:32.831Z,97919.90
2018-05-29T02:46:01.103Z,97913.94
2018-05-29T02:48:29.357Z,97918.50
2018-05-29T02:50:57.625Z,97916.44
2018-05-29T02:53:25.939Z,97922.38
2018-05-29T02:55:54.193Z,97923.29
2018-05-29T02:58:22.445Z,97929.03
2018-05-29T03:00:50.716Z,97923.73
2018-05-29T03:03:18.981Z,97928.31
2018-05-29T03:05:47.237Z,97924.64
2018-05-29T03:08:16.301Z,97922.20
2018-05-29T03:10:44.556Z,97917.20
2018-05-29T03:13:12.805Z,97908.38
2018-05-29T03:15:41.109Z,97907.77
2018-05-29T03:18:09.353Z,97907.66
2018-05-29T03:20:37.609Z,97908.69
2018-05-29T03:23:06.648Z,97915.22
2018-05-29T03:25:34.896Z,97909.88
2018-05-29T03:28:03.158Z,97917.92
2018-05-29T03:30:32.193Z,97918.45
2018-05-29T03:33:00.469Z,97920.78
2018-05-29T03:35:28.725Z,97915.44
2018-05-29T03:37:56.989Z,97914.59
2018-05-29T03:40:25.254Z,97916.66
2018-05-29T03:42:54.285Z,97919.30
2018-05-29T03:45:22.552Z,97911.63
2018-05-29T03:47:50.824Z,97910.52
2018-05-29T03:50:19.822Z,97912.23
2018-05-29T03:52:48.090Z,97911.11
2018-05-29T03:55:16.348Z,97907.91
2018-05-29T03:57:45.361Z,97906.49
2018-05-29T04:00:13.652Z,97911.45
2018-05-29T04:02:41.909Z,97908.35
2018-05-29T04:05:10.152Z,97909.83
2018-05-29T04:07:39.173Z,97919.55
2018-05-29T04:10:07.446Z,97912.11
2018-05-29T04:12:35.708Z,97907.70
2018-05-29T04:15:04.746Z,97905.53
2018-05-29T04:17:33.010Z,97903.81
2018-05-29T04:20:01.274Z,97910.66
2018-05-29T04:22:29.549Z,97906.03
2018-05-29T04:24:57.801Z,97904.02
2018-05-29T04:27:26.821Z,97902.18
2018-05-29T04:29:55.096Z,97910.64
2018-05-29T04:32:23.341Z,97910.33
2018-05-29T04:34:52.385Z,97909.23
2018-05-29T04:37:20.657Z,97906.19
2018-05-29T04:39:48.928Z,97907.53
2018-05-29T04:42:17.185Z,97907.27
2018-05-29T04:44:45.461Z,97904.34
2018-05-29T04:47:13.712Z,97906.31
2018-05-29T04:49:42.736Z,97904.89
2018-05-29T04:52:11.002Z,97902.84
2018-05-29T04:54:40.017Z,97901.67
2018-05-29T04:57:08.269Z,97903.67
2018-05-29T04:59:37.339Z,97903.92
2018-05-29T05:02:05.596Z,97904.48
2018-05-29T05:04:33.870Z,97903.84
2018-05-29T05:07:02.142Z,97899.84
2018-05-29T05:09:30.398Z,97898.48
2018-05-29T05:11:58.645Z,97894.49
2018-05-29T05:14:27.688Z,97887.00
2018-05-29T05:16:55.950Z,97884.31
2018-05-29T05:19:24.227Z,97877.49
2018-05-29T05:21:52.498Z,97877.92
2018-05-29T05:24:20.760Z,97873.41
2018-05-29T05:26:49.101Z,97871.28
2018-05-29T05:29:17.384Z,97867.53
2018-05-29T05:31:46.403Z,97870.61
2018-05-29T05:34:14.689Z,97861.36
2018-05-29T05:36:42.948Z,97860.64
2018-05-29T05:39:11.972Z,97860.36
2018-05-29T05:41:40.335Z,97860.09
2018-05-29T05:44:08.604Z,97865.88
2018-05-29T05:46:36.883Z,97860.94
2018-05-29T05:49:05.169Z,97866.72
2018-05-29T05:51:33.537Z,97864.53
2018-05-29T05:54:01.788Z,97865.58
2018-05-29T05:56:30.817Z,97862.92
2018-05-29T05:58:59.081Z,97854.81
2018-05-29T06:01:27.337Z,97851.73
2018-05-29T06:03:56.436Z,97847.58
2018-05-29T06:06:25.470Z,97838.50
2018-05-29T06:08:53.725Z,97838.42
2018-05-29T06:11:21.977Z,97823.88
2018-05-29T06:13:51.012Z,97832.31
2018-05-29T06:16:19.320Z,97829.84
2018-05-29T06:18:47.529Z,97827.48
2018-05-29T06:21:16.556Z,97830.70
2018-05-29T06:23:44.808Z,97836.36
2018-05-29T06:26:13.830Z,97832.52
2018-05-29T06:28:42.108Z,97837.96
2018-05-29T06:31:10.363Z,97829.39
2018-05-29T06:33:38.616Z,97838.75
2018-05-29T06:36:07.680Z,97838.97
2018-05-29T06:38:35.971Z,97826.45
2018-05-29T06:41:04.201Z,97832.76
2018-05-29T06:43:32.469Z,97829.48
2018-05-29T06:46:00.740Z,97829.99
2018-05-29T06:48:28.981Z,97829.33
2018-05-29T06:50:58.021Z,97834.55
2018-05-29T06:53:26.273Z,97836.31
2018-05-29T06:55:54.528Z,97836.93
2018-05-29T06:58:23.557Z,97844.17
2018-05-29T07:00:51.829Z,97846.38
2018-05-29T07:03:20.069Z,97842.66
2018-05-29T07:05:48.341Z,97845.62
2018-05-29T07:08:16.604Z,97838.16
2018-05-29T07:10:44.853Z,97841.16
2018-05-29T07:13:13.124Z,97843.52
2018-05-29T07:15:41.465Z,97834.17
2018-05-29T07:18:10.520Z,97834.23
2018-05-29T07:20:38.793Z,97826.34
2018-05-29T07:23:07.057Z,97822.95
2018-05-29T07:25:35.324Z,97826.19
2018-05-29T07:28:03.586Z,97828.73
2018-05-29T07:30:31.844Z,97827.14
2018-05-29T07:33:00.873Z,97823.36
2018-05-29T07:35:29.144Z,97814.15
2018-05-29T07:37:57.395Z,97818.56
2018-05-29T07:40:26.421Z,97821.54
2018-05-29T07:42:54.710Z,97819.59
2018-05-29T07:45:22.973Z,97818.14
2018-05-29T07:47:51.305Z,97816.82
2018-05-29T07:50:20.337Z,97817.53
2018-05-29T07:52:48.637Z,97817.50
2018-05-29T07:55:16.889Z,97815.67
2018-05-29T07:57:45.165Z,97814.48
2018-05-29T08:00:13.441Z,97814.53
2018-05-29T08:02:41.708Z,97815.70
2018-05-29T08:05:09.984Z,97808.65
2018-05-29T08:07:38.244Z,97803.48
2018-05-29T08:10:07.265Z,97789.66
2018-05-29T08:12:35.525Z,97793.07
2018-05-29T08:15:03.781Z,97788.77
2018-05-29T08:17:32.789Z,97786.23
2018-05-29T08:20:01.064Z,97785.52
2018-05-29T08:22:30.069Z,97787.78
2018-05-29T08:24:58.325Z,97790.73
2018-05-29T08:27:27.362Z,97788.38
2018-05-29T08:29:55.623Z,97781.39
2018-05-29T08:32:23.880Z,97775.59
2018-05-29T08:34:52.146Z,97774.31
2018-05-29T08:37:21.156Z,97775.47
2018-05-29T08:39:49.412Z,97773.48
2018-05-29T08:42:18.456Z,97773.25
2018-05-29T08:44:46.709Z,97772.59
2018-05-29T08:47:14.974Z,97769.16
2018-05-29T08:49:43.253Z,97772.70
2018-05-29T08:52:12.265Z,97772.10
2018-05-29T08:54:40.533Z,97770.85
2018-05-29T08:57:08.798Z,97769.27
2018-05-29T08:59:37.074Z,97776.23
2018-05-29T09:02:05.329Z,97767.27
2018-05-29T09:04:34.364Z,97760.52
2018-05-29T09:07:02.628Z,97757.81
2018-05-29T09:09:30.885Z,97759.62
2018-05-29T09:11:59.927Z,97754.73
2018-05-29T09:14:28.181Z,97754.33
2018-05-29T09:16:56.423Z,97750.00
2018-05-29T09:19:25.462Z,97752.23
2018-05-29T09:21:53.711Z,97747.37
2018-05-29T09:24:21.974Z,97752.69
2018-05-29T09:26:51.004Z,97749.56
2018-05-29T09:29:19.275Z,97750.63
2018-05-29T09:31:47.522Z,97755.16
2018-05-29T09:34:16.548Z,97746.00
2018-05-29T09:36:44.799Z,97751.97
2018-05-29T09:39:13.053Z,97746.34
2018-05-29T09:41:41.353Z,97749.72
2018-05-29T09:44:09.607Z,97740.36
2018-05-29T09:46:38.723Z,97741.55
2018-05-29T09:49:07.745Z,97739.42
2018-05-29T09:51:35.995Z,97737.24
2018-05-29T09:54:04.247Z,97744.81
2018-05-29T09:56:32.523Z,97743.20
2018-05-29T09:59:01.554Z,97739.20
2018-05-29T10:01:29.807Z,97736.30
2018-05-29T10:03:58.858Z,97738.11
2018-05-29T10:06:27.139Z,97739.77
2018-05-29T10:08:55.389Z,97739.84
2018-05-29T10:11:23.697Z,97737.13
2018-05-29T10:13:51.936Z,97732.67
2018-05-29T10:16:20.216Z,97732.88
2018-05-29T10:18:48.560Z,97736.84
2018-05-29T10:21:17.590Z,97724.74
2018-05-29T10:23:45.841Z,97730.16
2018-05-29T10:26:14.112Z,97726.17
2018-05-29T10:28:42.385Z,97722.20
2018-05-29T10:31:11.393Z,97722.70
2018-05-29T10:33:39.676Z,97715.73
2018-05-29T10:36:07.949Z,97718.12
2018-05-29T10:38:36.209Z,97718.64
2018-05-29T10:41:05.249Z,97716.83
2018-05-29T10:43:33.504Z,97721.59
2018-05-29T10:46:01.796Z,97718.91
2018-05-29T10:48:30.033Z,97718.80
2018-05-29T10:50:58.300Z,97718.03
2018-05-29T10:53:27.330Z,97723.13
2018-05-29T10:55:55.609Z,97719.81
2018-05-29T10:58:23.900Z,97718.66
2018-05-29T11:00:52.153Z,97720.03
2018-05-29T11:03:20.426Z,97720.77
2018-05-29T11:05:48.716Z,97715.29
2018-05-29T11:08:16.972Z,97721.35
2018-05-29T11:10:45.249Z,97719.93
2018-05-29T11:13:13.557Z,97713.30
2018-05-29T11:15:41.813Z,97722.12
2018-05-29T11:18:10.080Z,97713.61
2018-05-29T11:20:38.338Z,97710.35
2018-05-29T11:23:06.605Z,97710.48
2018-05-29T11:25:35.649Z,97709.03
2018-05-29T11:28:03.889Z,97710.98
2018-05-29T11:30:32.148Z,97710.19
2018-05-29T11:33:01.176Z,97700.75
2018-05-29T11:35:29.435Z,97706.63
2018-05-29T11:37:57.693Z,97700.86
2018-05-29T11:40:25.999Z,97706.07
2018-05-29T11:42:54.240Z,97704.73
2018-05-29T11:45:23.271Z,97704.82
2018-05-29T11:47:51.536Z,97703.23
2018-05-29T11:50:19.793Z,97703.05
2018-05-29T11:52:48.811Z,97700.23
2018-05-29T11:55:17.089Z,97699.83
2018-05-29T11:57:45.332Z,97696.39
2018-05-29T12:00:14.357Z,97696.97
2018-05-29T12:02:42.638Z,97685.53
2018-05-29T12:05:10.896Z,97683.55
2018-05-29T12:07:39.971Z,97678.06
2018-05-29T12:10:08.185Z,97680.36
2018-05-29T12:12:36.446Z,97677.25
2018-05-29T12:15:04.704Z,97673.99
2018-05-29T12:17:33.756Z,97660.95
2018-05-29T12:20:02.779Z,97667.76
2018-05-29T12:22:31.048Z,97660.44
2018-05-29T12:24:59.333Z,97652.91
2018-05-29T12:27:27.629Z,97652.65
2018-05-29T12:29:56.656Z,97657.41
2018-05-29T12:32:24.918Z,97650.33
2018-05-29T12:34:53.173Z,97648.84
2018-05-29T12:37:22.187Z,97648.73
2018-05-29T12:39:50.453Z,97639.44
2018-05-29T12:42:19.471Z,97641.69
2018-05-29T12:44:47.724Z,97634.62
2018-05-29T12:47:15.994Z,97635.36
2018-05-29T12:49:45.018Z,97635.11
2018-05-29T12:52:13.268Z,97641.16
2018-05-29T12:54:41.540Z,97644.81
2018-05-29T12:57:10.565Z,97638.20
2018-05-29T12:59:38.820Z,97637.52
2018-05-29T13:02:07.077Z,97637.53
2018-05-29T13:04:36.094Z,97637.88
2018-05-29T13:07:04.337Z,97631.64
2018-05-29T13:09:32.623Z,97628.81
2018-05-29T13:12:01.633Z,97622.78
2018-05-29T13:14:29.889Z,97624.34
2018-05-29T13:16:58.924Z,97619.17
2018-05-29T13:19:27.183Z,97617.27
2018-05-29T13:21:55.438Z,97614.81
2018-05-29T13:24:24.474Z,97610.91
2018-05-29T13:26:52.721Z,97607.58
2018-05-29T13:29:21.760Z,97609.38
2018-05-29T13:31:50.013Z,97590.98
2018-05-29T13:34:18.263Z,97598.57
2018-05-29T13:36:47.309Z,97588.25
2018-05-29T13:39:15.592Z,97580.44
2018-05-29T13:41:43.843Z,97586.05
2018-05-29T13:44:12.133Z,97590.83
2018-05-29T13:46:40.389Z,97574.47
2018-05-29T13:49:08.667Z,97568.72
2018-05-29T13:51:36.941Z,97577.88
2018-05-29T13:54:05.205Z,97573.97
2018-05-29T13:56:33.496Z,97574.89
2018-05-29T13:59:01.712Z,97576.31
2018-05-29T14:01:29.969Z,97588.25
2018-05-29T14:03:58.220Z,97583.16
2018-05-29T14:06:26.481Z,97584.86
2018-05-29T14:08:54.784Z,97580.84
2018-05-29T14:11:23.766Z,97581.50
2018-05-29T14:13:52.055Z,97574.92
2018-05-29T14:16:20.301Z,97571.75
2018-05-29T14:18:49.789Z,97569.87
2018-05-29T14:21:18.900Z,97579.04
2018-05-29T14:23:47.169Z,97579.09
2018-05-29T14:26:16.285Z,97573.88
2018-05-29T14:28:44.553Z,97573.98
2018-05-29T14:31:12.812Z,97578.09
2018-05-29T14:33:41.860Z,97585.66
2018-05-29T14:36:10.182Z,97587.78
2018-05-29T14:38:39.284Z,97617.63
2018-05-29T14:41:08.344Z,97622.24
2018-05-29T14:43:36.664Z,97635.53
2018-05-29T14:46:04.983Z,97651.58
2018-05-29T14:48:33.307Z,97667.45
2018-05-29T14:51:01.745Z,97683.40
2018-05-29T14:53:30.062Z,97708.22
2018-05-29T14:55:58.355Z,97715.53
2018-05-29T14:58:26.680Z,97733.33
2018-05-29T15:00:55.001Z,97763.59
2018-05-29T15:03:23.330Z,97758.11
2018-05-29T15:05:51.673Z,97756.87
2018-05-29T15:08:19.998Z,97791.22
2018-05-29T15:10:48.346Z,97785.30
2018-05-29T15:13:16.680Z,97763.77
2018-05-29T15:15:45.744Z,97752.55
2018-05-29T15:18:14.077Z,97743.70
2018-05-29T15:20:42.424Z,97742.53
2018-05-29T15:23:11.517Z,97724.05
2018-05-29T15:25:40.613Z,97713.80
2018-05-29T15:28:09.712Z,97708.13
2018-05-29T15:30:38.765Z,97699.84
2018-05-29T15:33:07.085Z,97689.75
2018-05-29T15:35:36.216Z,97674.23
2018-05-29T15:38:04.523Z,97673.25
2018-05-29T15:40:32.858Z,97669.84
2018-05-29T15:43:01.179Z,97669.33
2018-05-29T15:45:29.493Z,97660.49
2018-05-29T15:47:58.580Z,97658.75
2018-05-29T15:50:27.684Z,97653.05
2018-05-29T15:52:56.759Z,97667.56
2018-05-29T15:55:25.881Z,97678.89
2018-05-29T15:57:54.977Z,97681.63
2018-05-29T16:00:24.062Z,97678.45
2018-05-29T16:02:53.164Z,97677.31
2018-05-29T16:05:21.498Z,97664.02
2018-05-29T16:07:49.808Z,97662.05
2018-05-29T16:10:18.882Z,97663.30
2018-05-29T16:12:47.189Z,97663.06
2018-05-29T16:15:16.239Z,97660.26
2018-05-29T16:17:44.546Z,97653.37
2018-05-29T16:20:13.654Z,97649.66
2018-05-29T16:22:42.738Z,97648.67
2018-05-29T16:25:11.831Z,97673.23
2018-05-29T16:27:40.126Z,97689.38
2018-05-29T16:30:08.451Z,97680.36
2018-05-29T16:32:36.750Z,97692.77
2018-05-29T16:35:05.101Z,97693.39
2018-05-29T16:37:33.492Z,97691.45
2018-05-29T16:40:01.813Z,97687.73
2018-05-29T16:42:30.902Z,97690.27
2018-05-29T16:44:59.971Z,97687.23
2018-05-29T16:47:28.275Z,97675.05
2018-05-29T16:49:57.351Z,97664.94
2018-05-29T16:52:25.670Z,97658.11
2018-05-29T16:54:53.981Z,97670.34
2018-05-29T16:57:22.320Z,97667.58
2018-05-29T16:59:50.685Z,97658.42
2018-05-29T17:02:19.112Z,97664.48
2018-05-29T17:04:47.511Z,97673.02
2018-05-29T17:07:15.830Z,97670.62
2018-05-29T17:09:44.163Z,97672.23
2018-05-29T17:12:12.450Z,97685.94
2018-05-29T17:14:40.709Z,97690.83
2018-05-29T17:17:08.972Z,97689.01
2018-05-29T17:19:37.242Z,97702.30
2018-05-29T17:22:05.530Z,97716.43
2018-05-29T17:24:33.792Z,97728.20
2018-05-29T17:27:02.438Z,97728.14
2018-05-29T17:29:31.191Z,97744.93
2018-05-29T17:31:59.818Z,97732.73
2018-05-29T17:34:28.922Z,97735.81
2018-05-29T17:36:57.908Z,97741.91
2018-05-29T17:39:26.837Z,97745.71
2018-05-29T17:41:57.742Z,97754.83
2018-05-29T17:44:26.977Z,97766.21
2018-05-29T17:46:56.313Z,97768.97
2018-05-29T17:49:25.650Z,97768.80
2018-05-29T17:51:55.801Z,97762.31
2018-05-29T17:54:25.103Z,97757.34
2018-05-29T17:56:54.344Z,97775.89
2018-05-29T17:59:23.658Z,97757.79
2018-05-29T18:01:52.868Z,97763.03
2018-05-29T18:04:22.104Z,97745.98
2018-05-29T18:06:51.466Z,97752.98
2018-05-29T18:09:20.755Z,97745.13
2018-05-29T18:11:50.162Z,97729.94
2018-05-29T18:14:20.088Z,97735.10
2018-05-29T18:16:50.220Z,97737.52
2018-05-29T18:19:19.519Z,97730.41
2018-05-29T18:21:48.795Z,97724.29
2018-05-29T18:24:18.163Z,97731.38
2018-05-29T18:26:47.404Z,97735.83
2018-05-29T18:29:16.932Z,97723.69
2018-05-29T18:31:47.668Z,97714.44
2018-05-29T18:34:17.781Z,97716.25
2018-05-29T18:36:48.011Z,97706.77
2018-05-29T18:39:17.397Z,97693.44
2018-05-29T18:41:46.744Z,97681.07
2018-05-29T18:44:16.111Z,97676.20
2018-05-29T18:46:45.512Z,97666.17
2018-05-29T18:49:15.720Z,97670.47
2018-05-29T18:51:46.687Z,97668.59
2018-05-29T18:54:16.057Z,97674.27
2018-05-29T18:56:46.116Z,97667.01
2018-05-29T18:59:15.590Z,97667.33
2018-05-29T19:01:45.633Z,97677.33
2018-05-29T19:04:15.015Z,97690.52
2018-05-29T19:06:45.131Z,97682.42
2018-05-29T19:09:15.612Z,97678.89
2018-05-29T19:11:44.918Z,97682.48
2018-05-29T19:14:14.289Z,97684.12
2018-05-29T19:16:44.412Z,97684.73
2018-05-29T19:19:13.760Z,97685.21
2018-05-29T19:21:43.152Z,97682.14
2018-05-29T19:24:12.455Z,97690.04
2018-05-29T19:26:41.802Z,97694.89
2018-05-29T19:29:11.161Z,97697.28
2018-05-29T19:31:40.438Z,97703.70
2018-05-29T19:34:10.025Z,97703.01
2018-05-29T19:36:39.454Z,97702.74
2018-05-29T19:39:08.960Z,97699.64
2018-05-29T19:41:38.522Z,97695.45
2018-05-29T19:44:08.003Z,97697.61
2018-05-29T19:46:38.278Z,97692.84
2018-05-29T19:49:07.807Z,97690.66
2018-05-29T19:51:37.143Z,97685.36
2018-05-29T19:54:07.293Z,97696.44
2018-05-29T19:56:36.569Z,97690.59
2018-05-29T19:59:05.999Z,97695.07
2018-05-29T20:01:35.391Z,97691.42
2018-05-29T20:04:04.782Z,97692.37
2018-05-29T20:06:34.956Z,97695.34
2018-05-29T20:09:04.449Z,97691.55
2018-05-29T20:11:33.807Z,97690.75
2018-05-29T20:14:04.042Z,97691.95
2018-05-29T20:16:33.570Z,97696.39
2018-05-29T20:19:02.846Z,97693.69
2018-05-29T20:21:32.167Z,97691.61
2018-05-29T20:24:01.478Z,97699.65
2018-05-29T20:26:30.819Z,97694.88
2018-05-29T20:29:00.234Z,97689.99
2018-05-29T20:31:30.322Z,97695.24
2018-05-29T20:33:59.774Z,97702.00
2018-05-29T20:36:29.109Z,97701.25
2018-05-29T20:38:58.449Z,97704.34
2018-05-29T20:41:27.869Z,97710.38
2018-05-29T20:43:57.201Z,97718.88
2018-05-29T20:46:26.453Z,97728.55
2018-05-29T20:48:56.705Z,97733.91
2018-05-29T20:51:25.994Z,97734.61
2018-05-29T20:53:56.104Z,97726.39
2018-05-29T20:56:25.894Z,97726.95
2018-05-29T20:58:55.203Z,97728.67
2018-05-29T21:01:24.535Z,97723.48
2018-05-29T21:03:53.737Z,97728.63
2018-05-29T21:06:23.549Z,97733.88
2018-05-29T21:08:52.712Z,97739.53
2018-05-29T21:11:21.757Z,97740.48
2018-05-29T21:13:52.317Z,97739.13
2018-05-29T21:16:20.671Z,97744.89
2018-05-29T21:18:48.962Z,97744.83
2018-05-29T21:21:17.341Z,97751.86
2018-05-29T21:23:45.592Z,97755.94
2018-05-29T21:26:13.853Z,97754.45
2018-05-29T21:28:42.117Z,97751.81
2018-05-29T21:31:10.376Z,97740.94
2018-05-29T21:33:38.632Z,97741.82
2018-05-29T21:36:07.674Z,97744.66
2018-05-29T21:38:35.947Z,97743.67
2018-05-29T21:41:04.200Z,97745.86
2018-05-29T21:43:32.468Z,97743.83
2018-05-29T21:46:01.494Z,97745.16
2018-05-29T21:48:29.742Z,97751.05
2018-05-29T21:50:58.061Z,97745.53
2018-05-29T21:53:26.317Z,97749.48
2018-05-29T21:55:54.568Z,97743.48
2018-05-29T21:58:23.615Z,97754.57
2018-05-29T22:00:52.636Z,97753.19
2018-05-29T22:03:20.920Z,97760.37
2018-05-29T22:05:50.101Z,97756.58
2018-05-29T22:08:18.349Z,97761.64
2018-05-29T22:10:46.603Z,97753.47
2018-05-29T22:13:14.870Z,97757.05
2018-05-29T22:15:43.136Z,97764.11
2018-05-29T22:18:12.149Z,97757.74
2018-05-29T22:20:40.452Z,97758.58
2018-05-29T22:23:09.483Z,97759.87
2018-05-29T22:25:37.793Z,97759.83
2018-05-29T22:28:06.181Z,97763.87
2018-05-29T22:30:34.479Z,97762.38
2018-05-29T22:33:02.742Z,97765.44
2018-05-29T22:35:31.009Z,97775.94
2018-05-29T22:38:00.069Z,97783.36
2018-05-29T22:40:29.098Z,97776.16
2018-05-29T22:42:57.384Z,97780.97
2018-05-29T22:45:25.655Z,97781.98
2018-05-29T22:47:54.100Z,97793.54
2018-05-29T22:50:22.405Z,97787.75
2018-05-29T22:52:50.924Z,97790.77
2018-05-29T22:55:19.222Z,97784.02
2018-05-29T22:57:47.496Z,97792.93
2018-05-29T23:00:15.753Z,97800.25
2018-05-29T23:02:44.793Z,97794.78
2018-05-29T23:05:13.084Z,97803.11
2018-05-29T23:07:41.353Z,97812.33
2018-05-29T23:10:09.639Z,97807.05
2018-05-29T23:12:37.941Z,97802.09
2018-05-29T23:15:06.206Z,97804.83
2018-05-29T23:17:34.533Z,97811.15
2018-05-29T23:20:03.572Z,97813.15
2018-05-29T23:22:31.828Z,97810.17
2018-05-29T23:25:00.089Z,97814.54
2018-05-29T23:27:29.158Z,97809.64
2018-05-29T23:29:57.561Z,97815.52
2018-05-29T23:32:26.745Z,97812.20
2018-05-29T23:34:55.794Z,97807.20
2018-05-29T23:37:24.082Z,97816.59
2018-05-29T23:39:52.389Z,97814.88
2018-05-29T23:42:21.441Z,97817.72
2018-05-29T23:44:49.708Z,97824.93
2018-05-29T23:47:17.987Z,97820.50
2018-05-29T23:49:46.296Z,97829.04
2018-05-29T23:52:14.681Z,97828.86
2018-05-29T23:54:42.989Z,97834.02
2018-05-29T23:57:11.305Z,97837.98
2018-05-29T23:59:39.574Z,97842.01
